EDT,Max TemperatureF,Mean TemperatureF,Min TemperatureF,Max Dew PointF,MeanDew PointF,Min DewpointF,Max Humidity, Mean Humidity, Min Humidity, Max Sea Level PressureIn, Mean Sea Level PressureIn, Min Sea Level PressureIn, Max VisibilityMiles, Mean VisibilityMiles, Min VisibilityMiles, Max Wind SpeedMPH, Mean Wind SpeedMPH, Max Gust SpeedMPH,PrecipitationIn, CloudCover, Events, WindDirDegrees
2013-5-1,78,59,40,44,35,29,76,49,21,30.45,30.38,30.32,10,10,10,12,3,14,0.00,0,,183
2013-5-2,82,63,43,44,40,36,82,51,20,30.46,30.38,30.26,10,10,10,15,4,18,0.00,1,,133
2013-5-3,72,60,48,40,34,27,59,41,22,30.49,30.40,30.31,10,10,10,12,4,15,0.00,2,,97
2013-5-4,77,59,40,43,39,31,92,56,19,30.36,30.27,30.17,10,10,10,15,2,21,0.00,0,,70
2013-5-5,77,59,41,41,36,29,82,52,21,30.29,30.21,30.12,10,10,4,10,4,14,0.00,0,,189
2013-5-6,75,60,45,44,36,16,77,44,10,30.25,30.17,30.06,10,10,9,12,4,16,0.00,0,,194
2013-5-7,81,61,41,52,46,38,89,57,25,30.17,30.11,30.02,10,10,9,10,3,13,0.00,0,,170
2013-5-8,74,62,49,59,54,46,93,73,53,30.16,30.08,30.01,10,9,2,15,2,22,0.06,4,Rain,120
2013-5-9,71,61,51,57,53,48,100,74,47,30.00,29.94,29.86,10,5,0,15,3,17,0.01,3,Fog,181
2013-5-10,76,61,46,55,50,45,100,72,43,29.98,29.93,29.81,10,6,0,13,3,16,T,2,Fog-Rain,156
2013-5-11,69,62,55,63,59,50,93,80,67,29.82,29.70,29.65,10,7,2,18,7,24,0.41,8,Rain,202
2013-5-12,60,51,41,49,36,22,83,55,26,29.84,29.72,29.66,10,10,10,21,7,29,0.00,4,,250
2013-5-13,50,42,33,34,29,26,89,67,45,30.09,29.97,29.86,10,10,10,20,7,28,0.01,7,,239
2013-5-14,57,43,29,33,29,24,92,61,30,30.13,30.07,30.01,10,10,10,12,2,16,0.00,3,,111
2013-5-15,60,45,29,49,38,26,100,72,44,30.06,29.84,29.63,10,6,0,18,5,26,0.04,3,Fog-Rain,194
2013-5-16,78,58,37,45,37,27,93,55,16,29.88,29.71,29.65,10,8,1,28,9,44,0.00,0,,247
2013-5-17,69,55,40,42,38,34,96,63,29,30.24,30.08,29.91,10,10,10,16,6,22,0.00,1,,360
2013-5-18,73,55,36,46,39,36,100,64,27,30.32,30.25,30.21,10,7,1,10,3,18,0.00,0,,183
2013-5-19,61,52,42,55,49,39,96,84,72,30.30,30.26,30.15,10,6,0,16,4,24,0.10,5,Fog-Rain,176
2013-5-20,76,66,56,63,58,54,100,82,64,30.14,30.03,29.94,10,8,2,10,6,,0.00,7,,178
2013-5-21,82,69,56,66,60,55,100,79,58,29.95,29.88,29.81,10,5,0,20,6,28,0.80,5,Fog-Rain-Thunderstorm,45
2013-5-22,77,69,61,68,64,60,100,87,73,29.86,29.81,29.77,10,6,0,25,6,38,0.24,7,Fog-Rain-Thunderstorm,192
2013-5-23,78,71,63,67,64,61,93,77,60,29.81,29.76,29.72,10,6,0,21,8,28,0.47,6,Fog-Rain,196
2013-5-24,64,54,44,63,51,40,100,87,74,30.02,29.81,29.66,10,6,2,17,8,24,0.69,8,Rain,24
2013-5-25,45,44,42,41,40,38,89,86,82,29.99,29.95,29.93,10,7,3,24,12,36,0.61,8,Rain,343
2013-5-26,56,46,36,44,39,36,100,80,59,30.13,30.03,29.89,10,7,0,22,8,31,0.05,5,Fog-Rain,348
2013-5-27,72,52,32,43,35,30,100,61,22,30.20,30.13,30.09,10,5,0,14,3,21,0.00,2,Fog,11
2013-5-28,72,55,38,51,42,37,92,63,33,30.23,30.18,30.11,10,9,0,15,5,21,0.01,1,Fog,184
2013-5-29,70,63,56,66,60,53,100,89,78,30.11,30.01,29.94,10,4,0,15,3,20,0.37,7,Fog-Rain-Thunderstorm,181
2013-5-30,89,74,58,68,62,57,100,70,40,30.10,30.05,30.00,10,5,0,14,4,21,0.00,3,Fog,209
2013-5-31,91,74,57,71,61,57,100,68,36,30.10,30.05,29.91,10,4,0,16,4,23,0.00,0,Fog,199